Terminal Aerodrome Forecast
Issued by NWS Grand Junction, CO

Home | Current Version | Previous Version | Text Only | Print | Product List | Glossary On
Versions: 1 2 3 4 5 6 7 8 9 10 11
000
FTUS45 KGJT 132329
TAFGJT
TAF
KGJT 132329Z 1400/1424 33004KT P6SM OVC120
     FM140700 01005KT P6SM BKN070 BKN120
     FM141400 35006KT P6SM FEW080 SCT120
     FM141800 02008KT P6SM FEW250=

USA.gov is the U.S. government's official web portal to all federal, state and local government web resources and services.